Columbus, Ohio
Traffic Map
Current Weather Conditions
Columbus, Ohio
Few Clouds
Few Clouds

Feels Like: 6°
Wind Chill: Ceiling: Unl
Heat Index: Visibility: 8mi
Dew Point: Wind: 5mph
Humidity: 80% Direction: 150° (SSE)
Pressure: 29.96in Gusts: 0mph
Raw Report DataKCMH 251151Z 15004KT 8SM FEW250 07/04 A2996 RMK AO2 SLP148 T00720039 10083 20067 58007
Traffic Incident Summary
Active as of:
Severity:
Category:
InformationThere was an issue retrieving the traffic information for this location. Please try a different location or try again shortly.
Advertisements
Track Severe Weather on mobile